KVLD

Valdosta Regional Airport

Valdosta, Georgia, USA
KVLD 202330Z 2100/2124 19005KT P6SM VCTS BKN040CB TEMPO 2100/2102 5SM -TSRA BKN030CB FM210200 VRB04KT P6SM SCT050 FM211000 00000KT 3SM BR SCT003 FM211300 19003KT P6SM SKC FM211600 19003KT P6SM SCT035
Issued Valid From Valid To
Aug-20 @ 23:30 UTC
(18 hours ago)
Aug-21 @ 00:00 UTC
(18 hours ago)
Aug-22 @ 00:00 UTC
(in 6 hours)
Expired Click to View Aug-21 @ 00:00 to Aug-21 @ 02:00
KVLD 202330Z 2100/2124 19005KT P6SM VCTS BKN040CB
Wind Visibility Clouds Conditions
190° at 5 knots Greater than 6 miles
  • Broken at 4,000' AGL
  • Area Thunderstorm
Expired Click to View Aug-21 @ 00:00 to Aug-21 @ 02:00
TEMPO 2100/2102 5SM -TSRA BKN030CB
Visibility Clouds Conditions
5 miles
  • Broken at 3,000' AGL
  • Light Thunderstorm
  • Light Rain
Expired Click to View Aug-21 @ 02:00 to Aug-21 @ 10:00
FM210200 VRB04KT P6SM SCT050
Wind Visibility Clouds
Variable at 4 knots Greater than 6 miles
  • Scattered at 5,000' AGL
Expired Click to View Aug-21 @ 10:00 to Aug-21 @ 13:00
FM211000 00000KT 3SM BR SCT003
Visibility Clouds Conditions
3 miles
  • Scattered at 300' AGL
  • Mist
Expired Click to View Aug-21 @ 13:00 to Aug-21 @ 16:00
FM211300 19003KT P6SM SKC
Wind Visibility Clouds
190° at 3 knots Greater than 6 miles
  • Clear skies
From Aug-21 @ 16:00 to Aug-22 @ 00:00
FM211600 19003KT P6SM SCT035
Wind Visibility Clouds
190° at 3 knots Greater than 6 miles
  • Scattered at 3,500' AGL
KVLD 202330Z 2100/2124 19005KT P6SM VCTS BKN040CB TEMPO 2100/2102 5SM -TSRA BKN030CB FM210200 VRB04KT P6SM SCT050 FM211000 00000KT 3SM BR SCT003 FM211300 19003KT P6SM SKC FM211600 19003KT P6SM SCT035
Issued Aug-20 @ 23:30 UTC
(18 hours ago)
Valid From Aug-21 @ 00:00 UTC
(18 hours ago)
Valid To Aug-22 @ 00:00 UTC
(in 6 hours)
Aug-21 @ 00:00 - Aug-21 @ 02:00
Wind Visibility
190° at 5 knots Greater than 6 miles
Clouds
  • Broken at 4,000' AGL
Conditions
  • Area Thunderstorm
Aug-21 @ 00:00 - Aug-21 @ 02:00
Clouds
  • Broken at 3,000' AGL
Conditions
  • Light Thunderstorm
  • Light Rain
Aug-21 @ 02:00 - Aug-21 @ 10:00
Wind Visibility
Variable at 4 knots Greater than 6 miles
Clouds
  • Scattered at 5,000' AGL
Aug-21 @ 10:00 - Aug-21 @ 13:00
Clouds
  • Scattered at 300' AGL
Conditions
  • Mist
Aug-21 @ 13:00 - Aug-21 @ 16:00
Wind Visibility
190° at 3 knots Greater than 6 miles
Clouds
  • Clear skies
From Aug-21 @ 16:00 - Aug-22 @ 00:00
Wind Visibility
190° at 3 knots Greater than 6 miles
Clouds
  • Scattered at 3,500' AGL